Terminal Aerodrome Forecast
Issued by NWS

Home | Current Version | Previous Version | Text Only | Print | Product List | Glossary On
Versions: 1 2 3 4 5 6 7 8 9 10 11 12 13 14
000
FTUS45 KRIW 041739
TAFBPI
TAF
KBPI 041739Z 0418/0518 VRB05KT 6SM -SN SCT025 OVC040 WS020/28030KT
     FM042000 25007KT 4SM -SN OVC025 WS018/26040KT
     FM050300 26012G18KT 5SM -SN BKN025 OVC050 WS018/27045KT
     FM051000 29018G26KT 5SM -SN OVC025
     FM051700 30012G18KT P6SM VCSH SCT025 BKN040 OVC060=

USA.gov is the U.S. government's official web portal to all federal, state and local government web resources and services.